sensor_id;sensor_type;location;lat;lon;timestamp;P1;durP1;ratioP1;P2;durP2;ratioP2
142;SDS011;63667;49.046;8.468;2023-09-19T00:01:29;3.80;;;2.60;;
142;SDS011;63667;49.046;8.468;2023-09-19T00:03:57;8.40;;;2.40;;
142;SDS011;63667;49.046;8.468;2023-09-19T00:06:24;5.13;;;2.70;;
142;SDS011;63667;49.046;8.468;2023-09-19T00:08:52;4.77;;;2.70;;
142;SDS011;63667;49.046;8.468;2023-09-19T00:11:20;3.00;;;2.40;;
142;SDS011;63667;49.046;8.468;2023-09-19T00:13:53;4.43;;;2.20;;
142;SDS011;63667;49.046;8.468;2023-09-19T00:16:20;4.30;;;2.40;;
142;SDS011;63667;49.046;8.468;2023-09-19T00:18:48;3.50;;;2.63;;
142;SDS011;63667;49.046;8.468;2023-09-19T00:21:16;3.37;;;2.30;;
142;SDS011;63667;49.046;8.468;2023-09-19T00:23:44;2.70;;;2.07;;
142;SDS011;63667;49.046;8.468;2023-09-19T00:26:11;8.43;;;2.40;;
142;SDS011;63667;49.046;8.468;2023-09-19T00:28:39;3.17;;;2.37;;
142;SDS011;63667;49.046;8.468;2023-09-19T00:31:07;3.40;;;2.60;;
142;SDS011;63667;49.046;8.468;2023-09-19T00:33:35;4.50;;;2.43;;
142;SDS011;63667;49.046;8.468;2023-09-19T00:36:02;4.10;;;2.40;;
142;SDS011;63667;49.046;8.468;2023-09-19T00:38:31;5.10;;;2.73;;
142;SDS011;63667;49.046;8.468;2023-09-19T00:40:58;3.73;;;2.53;;
142;SDS011;63667;49.046;8.468;2023-09-19T00:43:25;2.87;;;2.23;;
142;SDS011;63667;49.046;8.468;2023-09-19T00:48:20;5.40;;;2.50;;
142;SDS011;63667;49.046;8.468;2023-09-19T00:50:48;3.83;;;2.40;;
142;SDS011;63667;49.046;8.468;2023-09-19T00:53:16;2.73;;;2.10;;
142;SDS011;63667;49.046;8.468;2023-09-19T00:55:44;2.93;;;2.40;;
142;SDS011;63667;49.046;8.468;2023-09-19T00:58:12;5.40;;;2.47;;
142;SDS011;63667;49.046;8.468;2023-09-19T01:00:40;4.20;;;2.20;;
142;SDS011;63667;49.046;8.468;2023-09-19T01:03:10;4.10;;;2.63;;
142;SDS011;63667;49.046;8.468;2023-09-19T01:05:39;5.60;;;2.00;;
142;SDS011;63667;49.046;8.468;2023-09-19T01:08:06;2.87;;;2.47;;
142;SDS011;63667;49.046;8.468;2023-09-19T01:10:33;6.23;;;2.53;;
142;SDS011;63667;49.046;8.468;2023-09-19T01:15:53;2.67;;;2.00;;
142;SDS011;63667;49.046;8.468;2023-09-19T01:18:35;4.73;;;2.47;;
142;SDS011;63667;49.046;8.468;2023-09-19T01:21:22;2.93;;;2.10;;
142;SDS011;63667;49.046;8.468;2023-09-19T01:29:23;3.07;;;2.10;;
142;SDS011;63667;49.046;8.468;2023-09-19T01:32:01;6.30;;;2.20;;
142;SDS011;63667;49.046;8.468;2023-09-19T01:34:51;3.60;;;2.23;;
142;SDS011;63667;49.046;8.468;2023-09-19T01:37:19;2.40;;;2.07;;
142;SDS011;63667;49.046;8.468;2023-09-19T01:40:07;2.57;;;1.90;;
142;SDS011;63667;49.046;8.468;2023-09-19T01:45:09;5.70;;;2.10;;
142;SDS011;63667;49.046;8.468;2023-09-19T01:47:51;2.67;;;2.40;;
142;SDS011;63667;49.046;8.468;2023-09-19T01:50:34;2.30;;;2.00;;
142;SDS011;63667;49.046;8.468;2023-09-19T01:53:08;2.37;;;2.10;;
142;SDS011;63667;49.046;8.468;2023-09-19T01:55:37;2.10;;;1.70;;
142;SDS011;63667;49.046;8.468;2023-09-19T01:58:20;4.20;;;2.07;;
142;SDS011;63667;49.046;8.468;2023-09-19T02:00:48;3.87;;;2.30;;
142;SDS011;63667;49.046;8.468;2023-09-19T02:03:20;3.30;;;2.30;;
142;SDS011;63667;49.046;8.468;2023-09-19T02:05:50;2.30;;;1.80;;
142;SDS011;63667;49.046;8.468;2023-09-19T02:08:20;11.10;;;3.60;;
142;SDS011;63667;49.046;8.468;2023-09-19T02:10:49;2.70;;;2.07;;
142;SDS011;63667;49.046;8.468;2023-09-19T02:13:17;3.53;;;2.23;;
142;SDS011;63667;49.046;8.468;2023-09-19T02:15:45;3.63;;;2.23;;
142;SDS011;63667;49.046;8.468;2023-09-19T02:18:12;3.73;;;2.13;;
142;SDS011;63667;49.046;8.468;2023-09-19T02:20:40;2.50;;;2.20;;
142;SDS011;63667;49.046;8.468;2023-09-19T02:23:07;2.50;;;2.30;;
142;SDS011;63667;49.046;8.468;2023-09-19T02:25:35;2.67;;;2.20;;
142;SDS011;63667;49.046;8.468;2023-09-19T02:28:03;3.43;;;2.03;;
142;SDS011;63667;49.046;8.468;2023-09-19T02:30:31;5.20;;;2.30;;
142;SDS011;63667;49.046;8.468;2023-09-19T02:32:58;3.07;;;2.27;;
142;SDS011;63667;49.046;8.468;2023-09-19T02:35:28;4.70;;;2.30;;
142;SDS011;63667;49.046;8.468;2023-09-19T02:38:00;4.10;;;2.33;;
142;SDS011;63667;49.046;8.468;2023-09-19T02:40:32;3.60;;;2.40;;
142;SDS011;63667;49.046;8.468;2023-09-19T02:43:01;3.30;;;2.33;;
142;SDS011;63667;49.046;8.468;2023-09-19T02:45:29;5.03;;;2.27;;
142;SDS011;63667;49.046;8.468;2023-09-19T02:47:56;3.47;;;2.30;;
142;SDS011;63667;49.046;8.468;2023-09-19T02:50:24;3.63;;;2.10;;
142;SDS011;63667;49.046;8.468;2023-09-19T02:52:52;8.73;;;2.60;;
142;SDS011;63667;49.046;8.468;2023-09-19T02:55:19;3.60;;;2.57;;
142;SDS011;63667;49.046;8.468;2023-09-19T02:57:51;3.70;;;2.30;;
142;SDS011;63667;49.046;8.468;2023-09-19T03:00:21;5.20;;;2.23;;
142;SDS011;63667;49.046;8.468;2023-09-19T03:02:52;5.10;;;2.43;;
142;SDS011;63667;49.046;8.468;2023-09-19T03:05:20;6.73;;;3.00;;
142;SDS011;63667;49.046;8.468;2023-09-19T03:07:47;4.00;;;2.40;;
142;SDS011;63667;49.046;8.468;2023-09-19T03:10:18;5.60;;;2.60;;
142;SDS011;63667;49.046;8.468;2023-09-19T03:12:45;6.67;;;2.70;;
142;SDS011;63667;49.046;8.468;2023-09-19T03:15:13;3.60;;;2.00;;
142;SDS011;63667;49.046;8.468;2023-09-19T03:17:44;4.23;;;2.83;;
142;SDS011;63667;49.046;8.468;2023-09-19T03:20:12;5.20;;;2.77;;
142;SDS011;63667;49.046;8.468;2023-09-19T03:22:39;3.40;;;2.60;;
142;SDS011;63667;49.046;8.468;2023-09-19T03:25:07;4.27;;;2.80;;
142;SDS011;63667;49.046;8.468;2023-09-19T03:27:36;6.40;;;2.93;;
142;SDS011;63667;49.046;8.468;2023-09-19T03:30:04;3.63;;;2.60;;
142;SDS011;63667;49.046;8.468;2023-09-19T03:32:35;7.00;;;2.70;;
142;SDS011;63667;49.046;8.468;2023-09-19T03:35:02;5.23;;;2.97;;
142;SDS011;63667;49.046;8.468;2023-09-19T03:37:33;3.33;;;2.93;;
142;SDS011;63667;49.046;8.468;2023-09-19T03:40:00;2.90;;;2.73;;
142;SDS011;63667;49.046;8.468;2023-09-19T03:42:31;3.13;;;2.93;;
142;SDS011;63667;49.046;8.468;2023-09-19T03:44:58;6.13;;;2.97;;
142;SDS011;63667;49.046;8.468;2023-09-19T03:47:26;14.00;;;3.20;;
142;SDS011;63667;49.046;8.468;2023-09-19T03:49:53;5.30;;;3.23;;
142;SDS011;63667;49.046;8.468;2023-09-19T03:52:20;10.00;;;3.30;;
142;SDS011;63667;49.046;8.468;2023-09-19T03:54:48;5.53;;;3.07;;
142;SDS011;63667;49.046;8.468;2023-09-19T03:57:15;4.33;;;3.13;;
142;SDS011;63667;49.046;8.468;2023-09-19T03:59:46;8.30;;;3.60;;
142;SDS011;63667;49.046;8.468;2023-09-19T04:02:13;9.43;;;3.37;;
142;SDS011;63667;49.046;8.468;2023-09-19T04:04:48;8.53;;;3.23;;
142;SDS011;63667;49.046;8.468;2023-09-19T04:07:15;6.57;;;3.20;;
142;SDS011;63667;49.046;8.468;2023-09-19T04:09:42;4.73;;;3.37;;
142;SDS011;63667;49.046;8.468;2023-09-19T04:12:09;4.00;;;3.20;;
142;SDS011;63667;49.046;8.468;2023-09-19T04:14:37;14.37;;;3.33;;
142;SDS011;63667;49.046;8.468;2023-09-19T04:17:04;5.10;;;3.00;;
142;SDS011;63667;49.046;8.468;2023-09-19T04:19:32;3.43;;;2.97;;
142;SDS011;63667;49.046;8.468;2023-09-19T04:21:59;4.07;;;2.97;;
142;SDS011;63667;49.046;8.468;2023-09-19T04:24:27;5.90;;;3.10;;
142;SDS011;63667;49.046;8.468;2023-09-19T04:26:54;4.47;;;2.80;;
142;SDS011;63667;49.046;8.468;2023-09-19T04:29:23;5.63;;;3.30;;
142;SDS011;63667;49.046;8.468;2023-09-19T04:31:52;9.23;;;3.23;;
142;SDS011;63667;49.046;8.468;2023-09-19T04:34:19;4.80;;;3.27;;
142;SDS011;63667;49.046;8.468;2023-09-19T04:36:45;4.73;;;2.80;;
142;SDS011;63667;49.046;8.468;2023-09-19T04:39:13;3.90;;;3.30;;
142;SDS011;63667;49.046;8.468;2023-09-19T04:41:40;4.37;;;2.93;;
142;SDS011;63667;49.046;8.468;2023-09-19T04:44:08;6.00;;;3.30;;
142;SDS011;63667;49.046;8.468;2023-09-19T04:46:35;3.80;;;3.10;;
142;SDS011;63667;49.046;8.468;2023-09-19T04:49:02;7.80;;;3.70;;
142;SDS011;63667;49.046;8.468;2023-09-19T04:51:30;11.47;;;3.40;;
142;SDS011;63667;49.046;8.468;2023-09-19T04:54:00;6.50;;;3.40;;
142;SDS011;63667;49.046;8.468;2023-09-19T04:56:28;5.83;;;2.87;;
142;SDS011;63667;49.046;8.468;2023-09-19T04:58:56;5.60;;;3.33;;
142;SDS011;63667;49.046;8.468;2023-09-19T05:01:24;4.80;;;3.20;;
142;SDS011;63667;49.046;8.468;2023-09-19T05:03:51;4.73;;;3.13;;
142;SDS011;63667;49.046;8.468;2023-09-19T05:06:18;7.33;;;4.03;;
142;SDS011;63667;49.046;8.468;2023-09-19T05:08:49;10.00;;;3.40;;
142;SDS011;63667;49.046;8.468;2023-09-19T05:11:20;7.53;;;3.40;;
142;SDS011;63667;49.046;8.468;2023-09-19T05:14:04;5.00;;;3.37;;
142;SDS011;63667;49.046;8.468;2023-09-19T05:16:32;7.90;;;3.73;;
142;SDS011;63667;49.046;8.468;2023-09-19T05:19:00;9.80;;;3.70;;
142;SDS011;63667;49.046;8.468;2023-09-19T05:21:27;4.10;;;2.97;;
142;SDS011;63667;49.046;8.468;2023-09-19T05:23:55;10.60;;;3.50;;
142;SDS011;63667;49.046;8.468;2023-09-19T05:26:23;4.27;;;3.13;;
142;SDS011;63667;49.046;8.468;2023-09-19T05:28:50;5.43;;;3.60;;
142;SDS011;63667;49.046;8.468;2023-09-19T05:31:18;8.50;;;3.83;;
142;SDS011;63667;49.046;8.468;2023-09-19T05:33:46;4.03;;;3.50;;
142;SDS011;63667;49.046;8.468;2023-09-19T05:36:13;6.67;;;3.50;;
142;SDS011;63667;49.046;8.468;2023-09-19T05:38:42;5.43;;;3.73;;
142;SDS011;63667;49.046;8.468;2023-09-19T05:41:10;6.63;;;3.77;;
142;SDS011;63667;49.046;8.468;2023-09-19T05:43:39;5.73;;;3.67;;
142;SDS011;63667;49.046;8.468;2023-09-19T05:46:07;4.90;;;3.37;;
142;SDS011;63667;49.046;8.468;2023-09-19T05:48:34;6.53;;;3.70;;
142;SDS011;63667;49.046;8.468;2023-09-19T05:51:01;4.13;;;3.40;;
142;SDS011;63667;49.046;8.468;2023-09-19T05:53:29;7.33;;;3.40;;
142;SDS011;63667;49.046;8.468;2023-09-19T05:55:56;6.00;;;3.77;;
142;SDS011;63667;49.046;8.468;2023-09-19T05:58:26;6.10;;;3.80;;
142;SDS011;63667;49.046;8.468;2023-09-19T06:00:54;6.73;;;3.47;;
142;SDS011;63667;49.046;8.468;2023-09-19T06:03:23;7.27;;;3.73;;
142;SDS011;63667;49.046;8.468;2023-09-19T06:05:50;6.57;;;4.10;;
142;SDS011;63667;49.046;8.468;2023-09-19T06:08:19;9.77;;;3.80;;
142;SDS011;63667;49.046;8.468;2023-09-19T06:10:46;14.27;;;3.80;;
142;SDS011;63667;49.046;8.468;2023-09-19T06:13:14;5.80;;;3.60;;
142;SDS011;63667;49.046;8.468;2023-09-19T06:15:42;11.93;;;4.00;;
142;SDS011;63667;49.046;8.468;2023-09-19T06:18:12;4.70;;;3.37;;
142;SDS011;63667;49.046;8.468;2023-09-19T06:20:46;6.73;;;3.70;;
142;SDS011;63667;49.046;8.468;2023-09-19T06:23:14;4.47;;;3.20;;
142;SDS011;63667;49.046;8.468;2023-09-19T06:25:41;10.87;;;3.93;;
142;SDS011;63667;49.046;8.468;2023-09-19T06:28:09;9.60;;;3.50;;
142;SDS011;63667;49.046;8.468;2023-09-19T06:30:38;5.37;;;3.40;;
142;SDS011;63667;49.046;8.468;2023-09-19T06:33:08;14.03;;;5.50;;
142;SDS011;63667;49.046;8.468;2023-09-19T06:35:38;6.70;;;3.67;;
142;SDS011;63667;49.046;8.468;2023-09-19T06:38:07;6.20;;;3.20;;
142;SDS011;63667;49.046;8.468;2023-09-19T06:40:35;8.40;;;3.33;;
142;SDS011;63667;49.046;8.468;2023-09-19T06:43:02;5.50;;;2.93;;
142;SDS011;63667;49.046;8.468;2023-09-19T06:45:32;3.63;;;3.00;;
142;SDS011;63667;49.046;8.468;2023-09-19T06:47:59;5.30;;;3.03;;
142;SDS011;63667;49.046;8.468;2023-09-19T06:50:28;4.03;;;3.10;;
142;SDS011;63667;49.046;8.468;2023-09-19T06:52:56;9.80;;;2.80;;
142;SDS011;63667;49.046;8.468;2023-09-19T06:55:25;7.10;;;3.50;;
142;SDS011;63667;49.046;8.468;2023-09-19T06:57:57;5.67;;;3.10;;
142;SDS011;63667;49.046;8.468;2023-09-19T07:00:24;4.90;;;3.30;;
142;SDS011;63667;49.046;8.468;2023-09-19T07:02:58;4.93;;;3.10;;
142;SDS011;63667;49.046;8.468;2023-09-19T07:05:30;8.63;;;2.87;;
142;SDS011;63667;49.046;8.468;2023-09-19T07:07:58;5.83;;;2.93;;
142;SDS011;63667;49.046;8.468;2023-09-19T07:10:27;5.90;;;3.60;;
142;SDS011;63667;49.046;8.468;2023-09-19T07:12:57;6.00;;;3.00;;
142;SDS011;63667;49.046;8.468;2023-09-19T07:15:27;8.40;;;3.23;;
142;SDS011;63667;49.046;8.468;2023-09-19T07:17:55;6.07;;;3.30;;
142;SDS011;63667;49.046;8.468;2023-09-19T07:20:23;13.23;;;3.57;;
142;SDS011;63667;49.046;8.468;2023-09-19T07:23:09;6.80;;;3.40;;
142;SDS011;63667;49.046;8.468;2023-09-19T07:25:39;5.63;;;3.40;;
142;SDS011;63667;49.046;8.468;2023-09-19T07:28:06;5.10;;;3.20;;
142;SDS011;63667;49.046;8.468;2023-09-19T07:30:35;6.70;;;2.97;;
142;SDS011;63667;49.046;8.468;2023-09-19T07:33:03;7.07;;;3.10;;
142;SDS011;63667;49.046;8.468;2023-09-19T07:35:31;8.27;;;2.73;;
142;SDS011;63667;49.046;8.468;2023-09-19T07:37:59;4.47;;;3.00;;
142;SDS011;63667;49.046;8.468;2023-09-19T07:40:29;8.10;;;3.17;;
142;SDS011;63667;49.046;8.468;2023-09-19T07:42:56;7.60;;;3.13;;
142;SDS011;63667;49.046;8.468;2023-09-19T07:45:27;3.83;;;2.60;;
142;SDS011;63667;49.046;8.468;2023-09-19T07:47:55;6.00;;;2.80;;
142;SDS011;63667;49.046;8.468;2023-09-19T07:50:23;8.30;;;2.90;;
142;SDS011;63667;49.046;8.468;2023-09-19T07:52:52;3.17;;;2.43;;
142;SDS011;63667;49.046;8.468;2023-09-19T07:55:20;3.60;;;2.80;;
142;SDS011;63667;49.046;8.468;2023-09-19T07:57:51;4.73;;;3.10;;
142;SDS011;63667;49.046;8.468;2023-09-19T08:00:19;9.23;;;3.20;;
142;SDS011;63667;49.046;8.468;2023-09-19T08:02:46;5.57;;;2.80;;
142;SDS011;63667;49.046;8.468;2023-09-19T08:05:14;5.20;;;2.83;;
142;SDS011;63667;49.046;8.468;2023-09-19T08:07:42;8.87;;;3.30;;
142;SDS011;63667;49.046;8.468;2023-09-19T08:10:10;5.70;;;3.00;;
142;SDS011;63667;49.046;8.468;2023-09-19T08:12:44;3.73;;;2.90;;
142;SDS011;63667;49.046;8.468;2023-09-19T08:15:17;9.70;;;2.97;;
142;SDS011;63667;49.046;8.468;2023-09-19T08:17:45;6.27;;;2.90;;
142;SDS011;63667;49.046;8.468;2023-09-19T08:20:12;4.17;;;2.80;;
142;SDS011;63667;49.046;8.468;2023-09-19T08:22:49;4.77;;;2.60;;
142;SDS011;63667;49.046;8.468;2023-09-19T08:25:21;6.07;;;3.17;;
142;SDS011;63667;49.046;8.468;2023-09-19T08:27:48;4.30;;;2.57;;
142;SDS011;63667;49.046;8.468;2023-09-19T08:30:17;7.47;;;3.47;;
142;SDS011;63667;49.046;8.468;2023-09-19T08:32:44;5.90;;;2.80;;
142;SDS011;63667;49.046;8.468;2023-09-19T08:35:31;6.67;;;2.90;;
142;SDS011;63667;49.046;8.468;2023-09-19T08:37:58;6.27;;;2.80;;
142;SDS011;63667;49.046;8.468;2023-09-19T08:40:30;3.80;;;2.90;;
142;SDS011;63667;49.046;8.468;2023-09-19T08:42:59;3.33;;;2.67;;
142;SDS011;63667;49.046;8.468;2023-09-19T08:45:26;5.57;;;2.60;;
142;SDS011;63667;49.046;8.468;2023-09-19T08:48:00;4.67;;;2.47;;
142;SDS011;63667;49.046;8.468;2023-09-19T08:50:29;4.37;;;2.40;;
142;SDS011;63667;49.046;8.468;2023-09-19T08:53:00;4.60;;;2.57;;
142;SDS011;63667;49.046;8.468;2023-09-19T08:55:28;6.73;;;2.50;;
142;SDS011;63667;49.046;8.468;2023-09-19T08:58:00;6.23;;;2.47;;
142;SDS011;63667;49.046;8.468;2023-09-19T09:00:28;7.37;;;2.33;;
142;SDS011;63667;49.046;8.468;2023-09-19T09:02:56;8.40;;;2.57;;
142;SDS011;63667;49.046;8.468;2023-09-19T09:05:24;6.10;;;2.20;;
142;SDS011;63667;49.046;8.468;2023-09-19T09:07:52;8.23;;;2.60;;
142;SDS011;63667;49.046;8.468;2023-09-19T09:10:22;5.13;;;2.30;;
142;SDS011;63667;49.046;8.468;2023-09-19T09:12:52;5.40;;;2.40;;
142;SDS011;63667;49.046;8.468;2023-09-19T09:15:21;5.97;;;3.00;;
142;SDS011;63667;49.046;8.468;2023-09-19T09:17:49;5.43;;;2.30;;
142;SDS011;63667;49.046;8.468;2023-09-19T09:20:17;2.60;;;2.30;;
142;SDS011;63667;49.046;8.468;2023-09-19T09:22:50;4.03;;;2.20;;
142;SDS011;63667;49.046;8.468;2023-09-19T09:25:19;8.20;;;2.30;;
142;SDS011;63667;49.046;8.468;2023-09-19T09:27:59;5.23;;;2.20;;
142;SDS011;63667;49.046;8.468;2023-09-19T09:30:35;7.43;;;2.90;;
142;SDS011;63667;49.046;8.468;2023-09-19T09:33:12;5.50;;;2.50;;
142;SDS011;63667;49.046;8.468;2023-09-19T09:35:54;5.60;;;2.40;;
142;SDS011;63667;49.046;8.468;2023-09-19T09:38:27;5.17;;;2.30;;
142;SDS011;63667;49.046;8.468;2023-09-19T09:40:58;5.20;;;2.30;;
142;SDS011;63667;49.046;8.468;2023-09-19T09:43:34;4.70;;;2.60;;
142;SDS011;63667;49.046;8.468;2023-09-19T09:46:09;7.10;;;2.27;;
142;SDS011;63667;49.046;8.468;2023-09-19T09:48:57;3.00;;;2.47;;
142;SDS011;63667;49.046;8.468;2023-09-19T09:54:15;3.27;;;2.20;;
142;SDS011;63667;49.046;8.468;2023-09-19T09:56:51;4.30;;;2.50;;
142;SDS011;63667;49.046;8.468;2023-09-19T10:02:43;3.60;;;2.63;;
142;SDS011;63667;49.046;8.468;2023-09-19T10:07:53;4.10;;;2.30;;
142;SDS011;63667;49.046;8.468;2023-09-19T10:10:29;7.70;;;2.33;;
142;SDS011;63667;49.046;8.468;2023-09-19T10:13:05;4.10;;;2.00;;
142;SDS011;63667;49.046;8.468;2023-09-19T10:15:33;5.33;;;2.30;;
142;SDS011;63667;49.046;8.468;2023-09-19T10:18:04;15.97;;;2.60;;
142;SDS011;63667;49.046;8.468;2023-09-19T10:20:34;5.13;;;2.30;;
142;SDS011;63667;49.046;8.468;2023-09-19T10:23:07;5.73;;;2.10;;
142;SDS011;63667;49.046;8.468;2023-09-19T10:25:38;2.87;;;1.90;;
142;SDS011;63667;49.046;8.468;2023-09-19T10:28:07;5.80;;;2.73;;
142;SDS011;63667;49.046;8.468;2023-09-19T10:30:37;3.67;;;2.33;;
142;SDS011;63667;49.046;8.468;2023-09-19T10:33:13;6.10;;;2.50;;
142;SDS011;63667;49.046;8.468;2023-09-19T10:35:47;6.77;;;2.30;;
142;SDS011;63667;49.046;8.468;2023-09-19T10:38:18;4.90;;;2.27;;
142;SDS011;63667;49.046;8.468;2023-09-19T10:40:53;2.97;;;2.23;;
142;SDS011;63667;49.046;8.468;2023-09-19T10:43:36;3.23;;;2.30;;
142;SDS011;63667;49.046;8.468;2023-09-19T10:46:07;10.10;;;2.17;;
142;SDS011;63667;49.046;8.468;2023-09-19T10:48:40;3.60;;;2.53;;
142;SDS011;63667;49.046;8.468;2023-09-19T10:51:14;5.07;;;2.67;;
142;SDS011;63667;49.046;8.468;2023-09-19T10:53:46;4.67;;;2.53;;
142;SDS011;63667;49.046;8.468;2023-09-19T10:56:32;3.57;;;2.40;;
142;SDS011;63667;49.046;8.468;2023-09-19T11:04:29;3.43;;;2.10;;
142;SDS011;63667;49.046;8.468;2023-09-19T11:07:09;5.47;;;2.60;;
142;SDS011;63667;49.046;8.468;2023-09-19T11:09:50;10.23;;;2.60;;
142;SDS011;63667;49.046;8.468;2023-09-19T11:14:53;3.27;;;2.30;;
142;SDS011;63667;49.046;8.468;2023-09-19T11:30:32;4.93;;;2.67;;
142;SDS011;63667;49.046;8.468;2023-09-19T11:36:08;4.37;;;2.30;;
142;SDS011;63667;49.046;8.468;2023-09-19T11:43:52;10.37;;;2.63;;
142;SDS011;63667;49.046;8.468;2023-09-19T11:46:24;6.50;;;2.60;;
142;SDS011;63667;49.046;8.468;2023-09-19T11:48:52;4.90;;;2.20;;
142;SDS011;63667;49.046;8.468;2023-09-19T11:53:53;3.20;;;2.20;;
142;SDS011;63667;49.046;8.468;2023-09-19T11:56:22;3.07;;;2.30;;
142;SDS011;63667;49.046;8.468;2023-09-19T11:58:51;3.10;;;2.53;;
142;SDS011;63667;49.046;8.468;2023-09-19T12:03:53;2.67;;;2.20;;
142;SDS011;63667;49.046;8.468;2023-09-19T12:06:23;5.70;;;2.37;;
142;SDS011;63667;49.046;8.468;2023-09-19T12:08:50;3.97;;;2.30;;
142;SDS011;63667;49.046;8.468;2023-09-19T12:11:20;7.70;;;2.43;;
142;SDS011;63667;49.046;8.468;2023-09-19T12:13:49;3.33;;;2.23;;
142;SDS011;63667;49.046;8.468;2023-09-19T12:16:18;2.97;;;2.23;;
142;SDS011;63667;49.046;8.468;2023-09-19T12:18:48;3.67;;;2.37;;
142;SDS011;63667;49.046;8.468;2023-09-19T12:23:57;3.93;;;2.70;;
142;SDS011;63667;49.046;8.468;2023-09-19T12:26:28;4.40;;;2.10;;
142;SDS011;63667;49.046;8.468;2023-09-19T12:28:55;3.23;;;2.30;;
142;SDS011;63667;49.046;8.468;2023-09-19T12:31:23;8.47;;;2.50;;
142;SDS011;63667;49.046;8.468;2023-09-19T12:33:53;3.00;;;2.20;;
142;SDS011;63667;49.046;8.468;2023-09-19T12:36:21;2.90;;;2.40;;
142;SDS011;63667;49.046;8.468;2023-09-19T12:38:55;3.17;;;2.30;;
142;SDS011;63667;49.046;8.468;2023-09-19T12:41:42;8.10;;;2.70;;
142;SDS011;63667;49.046;8.468;2023-09-19T12:44:13;5.20;;;2.90;;
142;SDS011;63667;49.046;8.468;2023-09-19T12:46:44;3.43;;;2.20;;
142;SDS011;63667;49.046;8.468;2023-09-19T12:49:15;3.50;;;2.10;;
142;SDS011;63667;49.046;8.468;2023-09-19T12:51:43;4.60;;;2.70;;
142;SDS011;63667;49.046;8.468;2023-09-19T12:54:11;3.77;;;2.40;;
142;SDS011;63667;49.046;8.468;2023-09-19T12:56:41;3.40;;;2.30;;
142;SDS011;63667;49.046;8.468;2023-09-19T12:59:14;3.00;;;2.47;;
142;SDS011;63667;49.046;8.468;2023-09-19T13:01:42;2.70;;;2.27;;
142;SDS011;63667;49.046;8.468;2023-09-19T13:04:29;4.10;;;2.40;;
142;SDS011;63667;49.046;8.468;2023-09-19T13:06:58;3.13;;;2.40;;
142;SDS011;63667;49.046;8.468;2023-09-19T13:09:27;4.87;;;2.70;;
142;SDS011;63667;49.046;8.468;2023-09-19T13:12:00;3.50;;;2.40;;
142;SDS011;63667;49.046;8.468;2023-09-19T13:14:29;3.53;;;2.70;;
142;SDS011;63667;49.046;8.468;2023-09-19T13:17:06;2.50;;;2.20;;
142;SDS011;63667;49.046;8.468;2023-09-19T13:19:50;2.87;;;2.30;;
142;SDS011;63667;49.046;8.468;2023-09-19T13:25:09;5.03;;;2.40;;
142;SDS011;63667;49.046;8.468;2023-09-19T13:27:46;3.40;;;2.20;;
142;SDS011;63667;49.046;8.468;2023-09-19T13:30:37;3.80;;;2.43;;
142;SDS011;63667;49.046;8.468;2023-09-19T13:33:09;3.10;;;2.23;;
142;SDS011;63667;49.046;8.468;2023-09-19T13:35:36;3.30;;;2.20;;
142;SDS011;63667;49.046;8.468;2023-09-19T13:38:06;4.20;;;2.83;;
142;SDS011;63667;49.046;8.468;2023-09-19T13:40:38;2.77;;;2.57;;
142;SDS011;63667;49.046;8.468;2023-09-19T13:43:05;2.87;;;2.23;;
142;SDS011;63667;49.046;8.468;2023-09-19T13:45:32;3.27;;;2.20;;
142;SDS011;63667;49.046;8.468;2023-09-19T13:48:00;3.27;;;2.17;;
142;SDS011;63667;49.046;8.468;2023-09-19T13:50:27;3.37;;;2.50;;
142;SDS011;63667;49.046;8.468;2023-09-19T13:52:55;4.20;;;2.60;;
142;SDS011;63667;49.046;8.468;2023-09-19T13:55:23;4.57;;;2.50;;
142;SDS011;63667;49.046;8.468;2023-09-19T13:57:51;3.40;;;2.40;;
142;SDS011;63667;49.046;8.468;2023-09-19T14:00:22;3.60;;;2.30;;
142;SDS011;63667;49.046;8.468;2023-09-19T14:02:49;2.43;;;2.30;;
142;SDS011;63667;49.046;8.468;2023-09-19T14:05:16;2.23;;;1.90;;
142;SDS011;63667;49.046;8.468;2023-09-19T14:07:45;2.50;;;2.30;;
142;SDS011;63667;49.046;8.468;2023-09-19T14:10:12;3.20;;;2.43;;
142;SDS011;63667;49.046;8.468;2023-09-19T14:12:40;3.93;;;2.43;;
142;SDS011;63667;49.046;8.468;2023-09-19T14:15:10;5.43;;;2.50;;
142;SDS011;63667;49.046;8.468;2023-09-19T14:17:38;5.67;;;2.30;;
142;SDS011;63667;49.046;8.468;2023-09-19T14:20:05;2.93;;;2.67;;
142;SDS011;63667;49.046;8.468;2023-09-19T14:22:36;2.90;;;2.20;;
142;SDS011;63667;49.046;8.468;2023-09-19T14:25:03;3.83;;;2.87;;
142;SDS011;63667;49.046;8.468;2023-09-19T14:27:31;4.20;;;2.20;;
142;SDS011;63667;49.046;8.468;2023-09-19T14:29:58;3.37;;;2.30;;
142;SDS011;63667;49.046;8.468;2023-09-19T14:32:25;7.90;;;2.80;;
142;SDS011;63667;49.046;8.468;2023-09-19T14:34:53;2.40;;;1.97;;
142;SDS011;63667;49.046;8.468;2023-09-19T14:37:20;2.50;;;2.30;;
142;SDS011;63667;49.046;8.468;2023-09-19T14:39:47;2.60;;;2.40;;
142;SDS011;63667;49.046;8.468;2023-09-19T14:42:14;2.50;;;2.10;;
142;SDS011;63667;49.046;8.468;2023-09-19T14:44:43;2.47;;;2.30;;
142;SDS011;63667;49.046;8.468;2023-09-19T14:47:10;10.83;;;2.17;;
142;SDS011;63667;49.046;8.468;2023-09-19T14:49:39;2.60;;;2.13;;
142;SDS011;63667;49.046;8.468;2023-09-19T14:52:07;5.60;;;3.13;;
142;SDS011;63667;49.046;8.468;2023-09-19T14:54:35;4.10;;;2.27;;
142;SDS011;63667;49.046;8.468;2023-09-19T14:57:04;5.73;;;2.43;;
142;SDS011;63667;49.046;8.468;2023-09-19T14:59:34;3.67;;;2.30;;
142;SDS011;63667;49.046;8.468;2023-09-19T15:02:05;2.40;;;2.10;;
142;SDS011;63667;49.046;8.468;2023-09-19T15:04:32;2.23;;;1.90;;
142;SDS011;63667;49.046;8.468;2023-09-19T15:06:59;2.53;;;2.07;;
142;SDS011;63667;49.046;8.468;2023-09-19T15:09:28;2.53;;;2.20;;
142;SDS011;63667;49.046;8.468;2023-09-19T15:11:58;2.70;;;2.10;;
142;SDS011;63667;49.046;8.468;2023-09-19T15:14:25;3.80;;;2.00;;
142;SDS011;63667;49.046;8.468;2023-09-19T15:16:52;4.47;;;2.03;;
142;SDS011;63667;49.046;8.468;2023-09-19T15:19:19;4.73;;;2.10;;
142;SDS011;63667;49.046;8.468;2023-09-19T15:21:48;3.03;;;2.27;;
142;SDS011;63667;49.046;8.468;2023-09-19T15:24:15;4.20;;;2.43;;
142;SDS011;63667;49.046;8.468;2023-09-19T15:26:43;4.10;;;2.10;;
142;SDS011;63667;49.046;8.468;2023-09-19T15:29:12;2.33;;;2.20;;
142;SDS011;63667;49.046;8.468;2023-09-19T15:31:39;3.90;;;2.50;;
142;SDS011;63667;49.046;8.468;2023-09-19T15:34:06;2.63;;;2.30;;
142;SDS011;63667;49.046;8.468;2023-09-19T15:36:34;3.07;;;2.40;;
142;SDS011;63667;49.046;8.468;2023-09-19T15:39:05;3.70;;;2.60;;
142;SDS011;63667;49.046;8.468;2023-09-19T15:41:36;2.50;;;2.30;;
142;SDS011;63667;49.046;8.468;2023-09-19T15:44:04;3.97;;;2.13;;
142;SDS011;63667;49.046;8.468;2023-09-19T15:46:31;2.67;;;2.20;;
142;SDS011;63667;49.046;8.468;2023-09-19T15:49:03;4.33;;;2.60;;
142;SDS011;63667;49.046;8.468;2023-09-19T15:51:29;2.70;;;2.33;;
142;SDS011;63667;49.046;8.468;2023-09-19T15:53:57;3.13;;;2.60;;
142;SDS011;63667;49.046;8.468;2023-09-19T15:56:26;3.33;;;2.40;;
142;SDS011;63667;49.046;8.468;2023-09-19T15:58:54;2.53;;;2.20;;
142;SDS011;63667;49.046;8.468;2023-09-19T16:01:22;4.33;;;2.43;;
142;SDS011;63667;49.046;8.468;2023-09-19T16:03:49;4.63;;;2.70;;
142;SDS011;63667;49.046;8.468;2023-09-19T16:06:27;4.47;;;2.40;;
142;SDS011;63667;49.046;8.468;2023-09-19T16:08:55;4.00;;;2.40;;
142;SDS011;63667;49.046;8.468;2023-09-19T16:11:24;3.70;;;2.47;;
142;SDS011;63667;49.046;8.468;2023-09-19T16:13:51;4.40;;;2.27;;
142;SDS011;63667;49.046;8.468;2023-09-19T16:16:19;3.17;;;2.60;;
142;SDS011;63667;49.046;8.468;2023-09-19T16:18:52;4.50;;;2.30;;
142;SDS011;63667;49.046;8.468;2023-09-19T16:21:38;13.30;;;2.40;;
142;SDS011;63667;49.046;8.468;2023-09-19T16:24:09;3.67;;;2.70;;
142;SDS011;63667;49.046;8.468;2023-09-19T16:26:36;3.47;;;2.30;;
142;SDS011;63667;49.046;8.468;2023-09-19T16:29:04;3.17;;;2.50;;
142;SDS011;63667;49.046;8.468;2023-09-19T16:31:31;5.80;;;2.63;;
142;SDS011;63667;49.046;8.468;2023-09-19T16:33:58;5.23;;;2.30;;